Time;durP1;ratioP1;P1;durP2;ratioP2;P2;SDS_P1;SDS_P2;PMS_P1;PMS_P2;Temp;Humidity;BMP_temperature;BMP_pressure;BME280_temperature;BME280_humidity;BME280_pressure;Samples;Min_cycle;Max_cycle;Signal;HPM_P1;HPM_P2
2022/09/28 00:02:23;;;;;;;3.67;1.60;;;;;;;7.69;nan;92374.69;4931205;29;20048;-62
2022/09/28 00:04:50;;;;;;;4.88;1.60;;;;;;;7.64;nan;92384.16;4931301;29;20646;-63
2022/09/28 00:07:16;;;;;;;4.22;1.50;;;;;;;7.62;nan;92372.91;4932200;29;20044;-61
2022/09/28 00:09:43;;;;;;;8.10;2.08;;;;;;;7.66;nan;92364.63;4931264;29;20497;-61
2022/09/28 00:12:10;;;;;;;5.43;1.50;;;;;;;7.58;nan;92359.38;4932354;29;20059;-61
2022/09/28 00:14:39;;;;;;;6.00;1.73;;;;;;;7.65;nan;92358.41;4931692;29;20496;-61
2022/09/28 00:17:07;;;;;;;3.97;1.50;;;;;;;7.73;nan;92348.06;4932172;29;20052;-62
2022/09/28 00:19:33;;;;;;;3.53;1.30;;;;;;;7.71;nan;92345.75;4931778;29;20056;-62
2022/09/28 00:22:00;;;;;;;6.93;2.17;;;;;;;7.64;nan;92332.28;4932096;29;20066;-62
2022/09/28 00:24:28;;;;;;;5.87;1.70;;;;;;;7.66;nan;92334.59;4933673;29;20040;-62
2022/09/28 00:26:56;;;;;;;5.70;1.40;;;;;;;7.63;nan;92330.03;4935567;29;20050;-62
2022/09/28 00:29:27;;;;;;;6.00;1.60;;;;;;;7.64;nan;92328.81;4935914;29;20040;-62
2022/09/28 00:32:16;;;;;;;2.90;1.20;;;;;;;7.79;nan;92324.47;4933171;29;20704;-61
2022/09/28 00:34:47;;;;;;;3.47;1.10;;;;;;;7.64;nan;92320.63;4931794;29;20052;-62
2022/09/28 00:37:14;;;;;;;5.23;1.60;;;;;;;7.70;nan;92316.91;4935884;29;20134;-62
2022/09/28 00:39:42;;;;;;;5.15;1.60;;;;;;;7.74;nan;92305.88;4918303;29;20058;-62
2022/09/28 00:42:16;;;;;;;5.00;1.38;;;;;;;7.82;nan;92298.22;4935626;29;20066;-61
2022/09/28 00:44:51;;;;;;;5.28;1.50;;;;;;;7.78;nan;92303.81;4935216;29;20098;-61
2022/09/28 00:47:40;;;;;;;3.95;1.55;;;;;;;7.77;nan;92296.81;4935336;29;20051;-62
2022/09/28 00:50:25;;;;;;;5.33;1.87;;;;;;;7.66;nan;92296.38;4934432;29;20424;-61
2022/09/28 00:53:07;;;;;;;8.13;2.67;;;;;;;7.78;nan;92282.72;4934458;29;20166;-62
2022/09/28 00:55:41;;;;;;;5.88;1.85;;;;;;;7.79;nan;92275.31;4934649;29;20048;-62
2022/09/28 00:58:12;;;;;;;4.38;1.20;;;;;;;7.83;nan;92270.50;4935306;29;20054;-61
2022/09/28 01:00:39;;;;;;;6.85;2.13;;;;;;;7.80;nan;92261.19;4934435;29;20523;-61
2022/09/28 01:03:08;;;;;;;8.03;2.67;;;;;;;7.77;nan;92253.88;4935227;29;20047;-62
2022/09/28 01:05:37;;;;;;;5.72;1.88;;;;;;;7.83;nan;92258.78;4934417;29;20051;-62
2022/09/28 01:08:04;;;;;;;4.47;1.80;;;;;;;7.87;nan;92249.28;4935038;29;20488;-61
2022/09/28 01:10:32;;;;;;;5.63;1.70;;;;;;;7.79;nan;92240.56;4934649;29;20058;-61
2022/09/28 01:12:59;;;;;;;4.68;1.50;;;;;;;7.89;nan;92233.22;4918036;29;20048;-61
2022/09/28 01:15:28;;;;;;;9.70;2.10;;;;;;;7.86;nan;92241.53;4934262;29;20059;-64
2022/09/28 01:18:14;;;;;;;6.82;1.38;;;;;;;7.90;nan;92237.47;4935043;29;20043;-62
2022/09/28 01:20:53;;;;;;;4.32;1.63;;;;;;;7.88;nan;92231.69;4934043;29;20051;-62
2022/09/28 01:23:36;;;;;;;4.30;1.52;;;;;;;7.92;nan;92228.84;4934870;29;20086;-62
2022/09/28 01:26:31;;;;;;;5.70;1.90;;;;;;;7.90;nan;92229.28;4933555;29;20408;-63
2022/09/28 01:29:36;;;;;;;4.47;1.47;;;;;;;7.90;nan;92217.59;4933775;29;20222;-61
2022/09/28 01:32:31;;;;;;;4.90;1.10;;;;;;;8.00;nan;92208.28;4888303;29;20759;-62
2022/09/28 01:35:17;;;;;;;6.18;1.80;;;;;;;7.95;nan;92215.09;4933262;28;20257;-62
2022/09/28 01:37:51;;;;;;;3.90;1.30;;;;;;;8.06;nan;92205.78;4943322;28;20044;-62
2022/09/28 01:40:21;;;;;;;5.57;1.80;;;;;;;8.02;nan;92194.97;4931909;29;22222;-62
2022/09/28 01:42:54;;;;;;;5.47;2.00;;;;;;;8.01;nan;92193.44;4933068;29;20047;-62
2022/09/28 01:45:31;;;;;;;6.93;2.78;;;;;;;8.12;nan;92184.88;4934289;29;20047;-62
2022/09/28 01:48:03;;;;;;;4.15;1.45;;;;;;;8.07;nan;92188.16;4933545;29;21678;-61
2022/09/28 01:50:39;;;;;;;3.97;1.40;;;;;;;8.08;nan;92176.03;4933706;29;20054;-63
2022/09/28 01:53:31;;;;;;;3.17;1.60;;;;;;;8.15;nan;92171.09;4934557;29;20055;-62
2022/09/28 01:56:04;;;;;;;4.83;1.60;;;;;;;8.13;nan;92183.66;4932724;29;20858;-62
2022/09/28 01:58:50;;;;;;;3.33;1.38;;;;;;;8.04;nan;92169.94;4933820;29;20094;-62
2022/09/28 02:01:42;;;;;;;6.57;1.80;;;;;;;8.08;nan;92160.41;4917493;29;20047;-62
2022/09/28 02:04:22;;;;;;;4.80;1.50;;;;;;;8.06;nan;92154.63;4879152;29;21448;-62
2022/09/28 02:06:54;;;;;;;4.13;1.50;;;;;;;8.08;nan;92154.94;4921108;29;20046;-61
2022/09/28 02:09:36;;;;;;;2.67;1.17;;;;;;;8.11;nan;92153.28;4934084;29;20477;-62
2022/09/28 02:12:12;;;;;;;2.95;1.25;;;;;;;8.14;nan;92157.88;4932869;29;20681;-62
2022/09/28 02:14:42;;;;;;;6.13;2.10;;;;;;;8.14;nan;92161.38;4933230;29;20040;-62
2022/09/28 02:17:10;;;;;;;4.03;1.17;;;;;;;8.15;nan;92149.25;4934008;29;20053;-62
2022/09/28 02:19:38;;;;;;;4.18;1.40;;;;;;;8.14;nan;92142.25;4933474;29;20052;-63
2022/09/28 02:22:11;;;;;;;4.53;1.50;;;;;;;8.18;nan;92137.41;4933569;29;20035;-62
2022/09/28 02:24:54;;;;;;;4.80;0.90;;;;;;;8.20;nan;92137.72;4916426;29;20048;-63
2022/09/28 02:27:40;;;;;;;4.57;1.50;;;;;;;8.13;nan;92127.06;4933287;29;20043;-63
2022/09/28 02:30:08;;;;;;;4.97;1.15;;;;;;;8.11;nan;92131.44;4932940;29;20701;-62
2022/09/28 02:32:41;;;;;;;3.47;1.02;;;;;;;8.09;nan;92120.19;4933103;29;20043;-62
2022/09/28 02:35:11;;;;;;;3.07;1.10;;;;;;;8.16;nan;92115.25;4937162;29;20111;-61
2022/09/28 02:37:38;;;;;;;5.93;1.52;;;;;;;8.26;nan;92110.59;4934700;28;20106;-63
2022/09/28 02:40:16;;;;;;;4.22;1.45;;;;;;;8.19;nan;92113.59;4933368;29;20048;-61
2022/09/28 02:43:09;;;;;;;3.20;1.20;;;;;;;8.18;nan;92123.00;4932947;29;20054;-63
2022/09/28 02:45:55;;;;;;;4.88;1.48;;;;;;;8.18;nan;92114.78;4930330;29;20052;-64
2022/09/28 02:48:46;;;;;;;2.90;0.90;;;;;;;8.15;nan;92100.06;4932567;29;20417;-63
2022/09/28 02:51:36;;;;;;;3.65;0.90;;;;;;;8.09;nan;92096.38;4920734;29;20682;-62
2022/09/28 02:54:24;;;;;;;2.92;1.10;;;;;;;8.17;nan;92094.16;4932395;29;20582;-62
2022/09/28 02:57:17;;;;;;;4.00;1.30;;;;;;;8.15;nan;92094.59;4932218;29;20401;-63
2022/09/28 03:00:07;;;;;;;4.13;1.00;;;;;;;8.23;nan;92088.88;4902763;29;20048;-61
2022/09/28 03:03:01;;;;;;;6.27;1.50;;;;;;;8.22;nan;92090.09;4932283;29;20054;-62
2022/09/28 03:06:05;;;;;;;3.53;1.15;;;;;;;8.07;nan;92070.69;4929764;29;20050;-61
2022/09/28 03:08:43;;;;;;;5.72;1.50;;;;;;;8.15;nan;92067.28;4932553;29;20043;-62
2022/09/28 03:11:19;;;;;;;3.55;1.10;;;;;;;8.19;nan;92078.09;4932132;29;20054;-62
2022/09/28 03:13:46;;;;;;;2.33;0.90;;;;;;;8.23;nan;92084.19;4930078;29;20045;-62
2022/09/28 03:16:17;;;;;;;7.93;1.90;;;;;;;8.07;nan;92096.06;4932637;29;20056;-64
2022/09/28 03:18:44;;;;;;;5.15;1.55;;;;;;;8.03;nan;92089.97;4932399;29;20420;-61
2022/09/28 03:21:12;;;;;;;3.00;1.10;;;;;;;8.01;nan;92086.91;4932765;29;20047;-62
2022/09/28 03:23:40;;;;;;;3.72;1.27;;;;;;;8.00;nan;92088.84;4932083;29;20049;-62
2022/09/28 03:26:09;;;;;;;2.63;1.10;;;;;;;7.99;nan;92089.31;4932188;29;20074;-61
2022/09/28 03:28:36;;;;;;;3.27;1.20;;;;;;;7.94;nan;92082.44;4932007;29;20058;-62
2022/09/28 03:31:03;;;;;;;4.47;1.15;;;;;;;8.00;nan;92074.44;4932637;29;20043;-62
2022/09/28 03:33:30;;;;;;;2.40;1.00;;;;;;;8.04;nan;92061.41;4931888;29;20047;-62
2022/09/28 03:35:57;;;;;;;1.90;0.70;;;;;;;8.05;nan;92057.50;4939670;28;20047;-63
2022/09/28 03:38:24;;;;;;;2.63;0.93;;;;;;;8.02;nan;92060.34;4932696;29;20046;-61
2022/09/28 03:40:56;;;;;;;2.50;1.00;;;;;;;7.98;nan;92061.22;4931792;29;20475;-62
2022/09/28 03:43:24;;;;;;;4.43;1.13;;;;;;;8.02;nan;92066.56;4932569;29;20052;-62
2022/09/28 03:45:56;;;;;;;3.53;0.90;;;;;;;8.00;nan;92063.50;4931481;29;20684;-62
2022/09/28 03:48:24;;;;;;;2.40;0.80;;;;;;;7.93;nan;92056.34;4932053;29;20090;-62
2022/09/28 03:50:59;;;;;;;2.78;1.17;;;;;;;7.96;nan;92060.91;4931300;29;20726;-62
2022/09/28 03:53:26;;;;;;;7.30;1.80;;;;;;;8.03;nan;92067.31;4931720;29;20492;-63
2022/09/28 03:55:52;;;;;;;3.65;1.27;;;;;;;7.99;nan;92064.75;4932195;29;20058;-61
2022/09/28 03:58:20;;;;;;;3.63;1.00;;;;;;;8.05;nan;92062.97;4931882;29;20046;-61
2022/09/28 04:00:47;;;;;;;3.85;1.00;;;;;;;8.00;nan;92047.13;4931659;29;20070;-62
2022/09/28 04:03:14;;;;;;;2.38;1.00;;;;;;;8.06;nan;92056.28;4931989;29;20047;-62
2022/09/28 04:05:49;;;;;;;4.23;0.90;;;;;;;8.08;nan;92048.41;4931732;29;20044;-62
2022/09/28 04:08:16;;;;;;;2.35;0.90;;;;;;;8.05;nan;92048.50;4914972;29;20052;-61
2022/09/28 04:10:43;;;;;;;2.30;0.80;;;;;;;8.06;nan;92031.69;4931699;29;20050;-62
2022/09/28 04:13:09;;;;;;;3.22;0.95;;;;;;;8.08;nan;92042.19;4930924;29;20048;-61
2022/09/28 04:15:37;;;;;;;1.80;0.70;;;;;;;8.15;nan;92031.00;4917902;29;20110;-61
2022/09/28 04:18:08;;;;;;;2.23;0.70;;;;;;;8.12;nan;92020.94;4932219;29;20048;-61
2022/09/28 04:20:35;;;;;;;6.75;2.22;;;;;;;8.15;nan;92023.56;4931255;29;20063;-62
2022/09/28 04:23:02;;;;;;;3.00;1.27;;;;;;;8.08;nan;92014.84;4932039;29;20074;-61
2022/09/28 04:25:28;;;;;;;24.02;9.75;;;;;;;8.22;nan;92025.25;4931316;29;20048;-63
2022/09/28 04:30:40;;;;;;;9.30;4.17;;;;;;;8.24;nan;92022.09;4919408;29;20400;-61
2022/09/28 04:33:07;;;;;;;9.88;4.38;;;;;;;8.24;nan;92013.88;4932143;29;20050;-61
2022/09/28 04:35:34;;;;;;;3.45;1.48;;;;;;;8.09;nan;92011.69;4934396;29;20044;-63
2022/09/28 04:38:01;;;;;;;13.27;7.35;;;;;;;8.09;nan;92011.69;4932004;29;20044;-61
2022/09/28 04:40:27;;;;;;;6.22;2.60;;;;;;;8.16;nan;92016.13;4931356;29;20070;-62
2022/09/28 04:42:55;;;;;;;17.13;10.23;;;;;;;8.19;nan;92013.25;4931917;29;20043;-62
2022/09/28 04:45:24;;;;;;;18.42;10.50;;;;;;;8.25;nan;91999.00;4931648;29;20058;-61
2022/09/28 04:47:51;;;;;;;3.20;1.33;;;;;;;8.14;nan;91996.69;4931076;29;20806;-62
2022/09/28 04:50:18;;;;;;;6.68;2.75;;;;;;;8.32;nan;91991.31;4931904;29;20036;-62
2022/09/28 04:52:45;;;;;;;11.45;5.38;;;;;;;8.20;nan;92008.56;4931332;29;20058;-62
2022/09/28 04:55:13;;;;;;;22.57;11.17;;;;;;;8.23;nan;92004.16;4931676;29;20404;-62
2022/09/28 04:57:40;;;;;;;40.83;15.10;;;;;;;8.26;nan;92012.22;4930880;29;20540;-63
2022/09/28 05:00:08;;;;;;;46.17;21.38;;;;;;;8.30;nan;92017.56;4931642;29;20055;-62
2022/09/28 05:02:35;;;;;;;18.83;7.78;;;;;;;8.11;nan;92011.22;4931013;29;20043;-62
2022/09/28 05:05:02;;;;;;;2.22;1.10;;;;;;;8.00;nan;92003.41;4931464;29;20051;-62
2022/09/28 05:07:30;;;;;;;3.60;1.30;;;;;;;7.91;nan;92006.88;4930708;29;20413;-62
2022/09/28 05:09:56;;;;;;;2.33;1.02;;;;;;;7.90;nan;91999.88;4929822;29;20040;-61
2022/09/28 05:12:23;;;;;;;1.98;0.80;;;;;;;7.89;nan;92003.06;4933661;29;20497;-62
2022/09/28 05:14:50;;;;;;;12.05;5.18;;;;;;;8.11;nan;91998.34;4933293;29;21431;-62
2022/09/28 05:17:17;;;;;;;15.30;7.38;;;;;;;8.13;nan;91993.19;4934140;29;20054;-62
2022/09/28 05:19:44;;;;;;;47.57;21.03;;;;;;;8.19;nan;92005.06;4933909;29;20040;-61
2022/09/28 05:22:13;;;;;;;39.90;18.45;;;;;;;8.24;nan;92009.19;4934089;29;20488;-62
2022/09/28 05:24:40;;;;;;;15.38;6.80;;;;;;;8.24;nan;92019.34;4933800;29;20048;-62
2022/09/28 05:27:07;;;;;;;107.97;46.17;;;;;;;8.41;nan;92017.97;4934082;29;20066;-61
2022/09/28 05:29:34;;;;;;;54.08;24.73;;;;;;;8.44;nan;92003.38;4933823;29;20039;-61
2022/09/28 05:32:04;;;;;;;12.43;5.70;;;;;;;8.26;nan;92017.69;4934483;29;20043;-62
2022/09/28 05:34:31;;;;;;;9.23;4.43;;;;;;;8.19;nan;92015.25;4933103;29;20051;-62
2022/09/28 05:36:57;;;;;;;54.33;30.80;;;;;;;8.27;nan;92018.44;4922255;29;20110;-62
2022/09/28 05:39:24;;;;;;;28.80;14.13;;;;;;;8.30;nan;92017.56;4933959;29;20051;-62
2022/09/28 05:41:51;;;;;;;27.23;14.70;;;;;;;8.36;nan;92016.53;4933103;29;21393;-63
2022/09/28 05:44:18;;;;;;;34.27;17.43;;;;;;;8.42;nan;92024.94;4934333;29;20054;-62
2022/09/28 05:46:45;;;;;;;30.50;15.27;;;;;;;8.43;nan;92017.50;4933786;29;20949;-62
2022/09/28 05:49:12;;;;;;;13.80;6.60;;;;;;;8.46;nan;92024.81;4934267;29;20079;-62
2022/09/28 05:51:39;;;;;;;14.02;7.28;;;;;;;8.43;nan;92033.91;4933551;29;20050;-62
2022/09/28 05:54:07;;;;;;;13.05;6.43;;;;;;;8.28;nan;92030.91;4934206;29;20040;-62
2022/09/28 05:56:34;;;;;;;11.73;5.43;;;;;;;8.34;nan;92034.59;4933389;29;20400;-62
2022/09/28 05:59:02;;;;;;;7.72;4.47;;;;;;;8.32;nan;92026.84;4933796;29;20043;-63
2022/09/28 06:01:29;;;;;;;7.65;4.32;;;;;;;8.06;nan;92025.47;4931931;29;20051;-62
2022/09/28 06:03:56;;;;;;;6.40;3.20;;;;;;;7.97;nan;92010.53;4933792;29;20047;-62
2022/09/28 06:06:23;;;;;;;3.05;1.38;;;;;;;7.94;nan;92008.69;4933323;29;20040;-62
2022/09/28 06:08:49;;;;;;;2.17;0.90;;;;;;;7.96;nan;92019.94;4933564;29;20044;-62
2022/09/28 06:11:16;;;;;;;2.50;0.88;;;;;;;7.98;nan;92020.25;4933916;29;20292;-62
2022/09/28 06:13:43;;;;;;;2.90;1.60;;;;;;;8.15;nan;92020.06;4933573;29;20048;-62
2022/09/28 06:16:15;;;;;;;3.85;1.70;;;;;;;8.23;nan;92012.34;4933682;29;20044;-61
2022/09/28 06:18:42;;;;;;;2.90;1.23;;;;;;;8.17;nan;92014.94;4933504;29;20058;-63
2022/09/28 06:21:10;;;;;;;2.20;0.80;;;;;;;8.26;nan;92014.97;4933738;29;20043;-62
2022/09/28 06:23:37;;;;;;;2.00;0.90;;;;;;;8.33;nan;92027.59;4933250;29;20051;-62
2022/09/28 06:26:06;;;;;;;3.55;1.67;;;;;;;8.49;nan;92024.69;4933429;29;20462;-62
2022/09/28 06:28:32;;;;;;;39.17;14.65;;;;;;;8.54;nan;92023.34;4933148;29;20058;-62
2022/09/28 06:30:59;;;;;;;64.68;23.92;;;;;;;8.70;nan;92036.00;4933479;29;20039;-62
2022/09/28 06:33:26;;;;;;;47.10;18.57;;;;;;;8.87;nan;92033.78;4932937;29;20046;-62
2022/09/28 06:35:53;;;;;;;21.67;8.80;;;;;;;8.84;nan;92029.22;4942703;28;20165;-62
2022/09/28 06:38:20;;;;;;;10.13;3.72;;;;;;;8.70;nan;92019.59;4935436;29;20076;-62
2022/09/28 06:40:47;;;;;;;5.72;3.05;;;;;;;8.83;nan;92027.69;4932992;29;20066;-63
2022/09/28 06:43:14;;;;;;;5.15;3.00;;;;;;;8.77;nan;92035.72;4933319;29;20051;-62
2022/09/28 06:45:42;;;;;;;3.97;1.53;;;;;;;8.82;nan;92042.59;4932901;29;20053;-62
2022/09/28 06:48:10;;;;;;;3.17;1.30;;;;;;;8.85;nan;92049.88;4933045;29;20056;-61
2022/09/28 06:50:39;;;;;;;3.83;1.65;;;;;;;8.71;nan;92049.25;4932583;29;20052;-62
2022/09/28 06:53:10;;;;;;;3.90;1.88;;;;;;;8.84;nan;92046.41;4933138;29;20047;-62
2022/09/28 06:55:42;;;;;;;3.10;1.25;;;;;;;9.03;nan;92057.41;4932597;29;20048;-62
2022/09/28 06:58:11;;;;;;;3.67;1.50;;;;;;;9.22;nan;92069.94;4932872;29;20048;-62
2022/09/28 07:00:39;;;;;;;4.30;2.63;;;;;;;9.25;nan;92079.22;4931314;29;20055;-62
2022/09/28 07:03:10;;;;;;;2.63;1.50;;;;;;;9.23;nan;92073.44;4932664;29;20493;-63
2022/09/28 07:05:40;;;;;;;3.33;0.93;;;;;;;9.03;nan;92071.84;4932411;29;20055;-62
2022/09/28 07:08:07;;;;;;;3.72;2.05;;;;;;;8.22;nan;92079.91;4915996;29;20047;-62
2022/09/28 07:10:34;;;;;;;3.30;1.30;;;;;;;8.03;nan;92092.69;4915298;29;20039;-62
2022/09/28 07:13:02;;;;;;;6.28;1.20;;;;;;;8.19;nan;92092.50;4932730;29;20184;-62
2022/09/28 07:15:30;;;;;;;2.30;1.05;;;;;;;8.44;nan;92117.44;4932133;29;20055;-63
2022/09/28 07:18:01;;;;;;;2.35;0.77;;;;;;;8.61;nan;92118.75;4932462;29;20059;-62
2022/09/28 07:20:32;;;;;;;2.53;1.00;;;;;;;8.84;nan;92122.97;4932187;29;20088;-63
2022/09/28 07:23:07;;;;;;;2.93;0.90;;;;;;;8.61;nan;92129.69;4932681;29;20040;-62
2022/09/28 07:25:46;;;;;;;2.30;0.80;;;;;;;8.58;nan;92136.06;4932050;29;20058;-62
2022/09/28 07:28:14;;;;;;;5.10;1.00;;;;;;;8.45;nan;92136.13;4932327;29;20048;-62
2022/09/28 07:30:42;;;;;;;2.42;1.15;;;;;;;8.42;nan;92141.72;4932020;29;20499;-62
2022/09/28 07:33:12;;;;;;;2.55;1.00;;;;;;;8.41;nan;92149.16;4915057;29;20044;-62
2022/09/28 07:35:40;;;;;;;3.63;0.73;;;;;;;8.51;nan;92152.69;4922562;28;20050;-62
2022/09/28 07:38:09;;;;;;;5.07;1.15;;;;;;;8.79;nan;92150.91;4933313;29;20083;-62
2022/09/28 07:43:21;;;;;;;3.92;0.90;;;;;;;8.88;nan;92170.13;4932230;29;20050;-62
2022/09/28 07:45:51;;;;;;;2.85;1.00;;;;;;;8.77;nan;92170.53;4931940;29;20040;-62
2022/09/28 07:48:18;;;;;;;5.00;1.20;;;;;;;8.90;nan;92170.44;4932121;29;20169;-62
2022/09/28 07:50:54;;;;;;;4.70;0.82;;;;;;;8.94;nan;92170.31;4931770;29;20122;-63
2022/09/28 07:53:23;;;;;;;3.13;1.23;;;;;;;9.01;nan;92172.75;4932461;29;20040;-62
2022/09/28 07:55:52;;;;;;;3.53;1.35;;;;;;;8.67;nan;92168.16;4931395;29;20049;-62
2022/09/28 07:58:19;;;;;;;3.00;1.33;;;;;;;8.37;nan;92167.59;4932155;29;20043;-62
2022/09/28 08:00:47;;;;;;;5.53;1.43;;;;;;;8.83;nan;92172.66;4931756;29;20069;-62
2022/09/28 08:03:21;;;;;;;4.22;1.35;;;;;;;9.30;nan;92166.97;4915189;29;20040;-64
2022/09/28 08:05:48;;;;;;;3.70;1.10;;;;;;;9.20;nan;92177.13;4931775;29;20044;-62
2022/09/28 08:08:15;;;;;;;3.63;1.02;;;;;;;9.31;nan;92181.41;4931995;29;20044;-62
2022/09/28 08:10:43;;;;;;;2.95;1.13;;;;;;;9.47;nan;92181.19;4931438;29;20043;-62
2022/09/28 08:13:13;;;;;;;3.10;1.00;;;;;;;9.65;nan;92194.16;4931845;29;20054;-62
2022/09/28 08:15:41;;;;;;;3.28;1.20;;;;;;;9.38;nan;92194.84;4931382;29;20051;-62
2022/09/28 08:18:08;;;;;;;3.45;1.50;;;;;;;8.88;nan;92191.25;4931901;29;20044;-62
2022/09/28 08:23:22;;;;;;;3.17;1.20;;;;;;;9.52;nan;92202.50;4931553;29;20066;-63
2022/09/28 08:25:52;;;;;;;3.53;1.07;;;;;;;9.45;nan;92199.28;4931369;29;20052;-63
2022/09/28 08:28:21;;;;;;;3.13;1.17;;;;;;;9.36;nan;92195.28;4931704;29;20058;-63
2022/09/28 08:30:49;;;;;;;3.30;0.85;;;;;;;9.16;nan;92195.66;4914571;29;20536;-63
2022/09/28 08:33:19;;;;;;;4.10;1.40;;;;;;;9.52;nan;92191.56;4931570;29;20153;-62
2022/09/28 08:35:46;;;;;;;4.68;1.70;;;;;;;9.09;nan;92206.84;4931927;29;20078;-63
2022/09/28 08:38:13;;;;;;;6.00;2.03;;;;;;;9.33;nan;92209.09;4931578;29;20478;-63
2022/09/28 08:40:58;;;;;;;5.22;2.00;;;;;;;8.72;nan;92217.56;4931467;29;20141;-63
2022/09/28 08:43:47;;;;;;;5.57;2.30;;;;;;;8.66;nan;92215.88;4915065;29;20082;-62
2022/09/28 08:46:18;;;;;;;4.03;1.65;;;;;;;8.19;nan;92222.91;4932437;29;20744;-62
2022/09/28 08:48:55;;;;;;;4.15;1.60;;;;;;;8.63;nan;92225.69;4933290;29;20039;-62
2022/09/28 08:51:52;;;;;;;3.63;1.20;;;;;;;9.09;nan;92230.72;4934587;29;20450;-63
2022/09/28 08:54:25;;;;;;;3.22;1.20;;;;;;;9.06;nan;92226.91;4922798;29;20060;-62
2022/09/28 08:56:59;;;;;;;5.40;1.55;;;;;;;8.89;nan;92231.06;4933998;29;20252;-62
2022/09/28 08:59:42;;;;;;;4.63;1.55;;;;;;;8.97;nan;92232.31;4934656;29;20039;-62
2022/09/28 09:02:21;;;;;;;4.53;1.23;;;;;;;8.95;nan;92234.75;4935299;29;20050;-63
2022/09/28 09:04:50;;;;;;;3.63;1.07;;;;;;;8.95;nan;92248.41;4934463;29;20377;-62
2022/09/28 09:07:29;;;;;;;4.15;1.10;;;;;;;9.38;nan;92255.84;4917926;29;20057;-63
2022/09/28 09:10:32;;;;;;;4.93;2.20;;;;;;;9.80;nan;92260.13;4934178;29;20327;-63
2022/09/28 09:13:17;;;;;;;3.17;1.23;;;;;;;9.57;nan;92253.94;4934280;29;21502;-63
2022/09/28 09:16:25;;;;;;;3.97;1.38;;;;;;;9.77;nan;92255.53;4934740;29;20489;-63
2022/09/28 09:19:16;;;;;;;3.53;1.17;;;;;;;9.59;nan;92256.22;4934255;29;20862;-63
2022/09/28 09:21:52;;;;;;;3.00;1.20;;;;;;;9.81;nan;92256.16;4934477;29;20489;-62
2022/09/28 09:24:26;;;;;;;3.20;1.52;;;;;;;9.98;nan;92249.22;4934820;29;20050;-63
2022/09/28 09:27:19;;;;;;;2.95;1.10;;;;;;;10.26;nan;92252.03;4916703;29;21307;-63
2022/09/28 09:29:58;;;;;;;2.95;0.98;;;;;;;9.98;nan;92243.75;4934433;29;20059;-62
2022/09/28 09:32:58;;;;;;;3.27;1.10;;;;;;;10.06;nan;92241.50;4934676;29;20066;-62
2022/09/28 09:35:45;;;;;;;4.55;1.63;;;;;;;9.85;nan;92253.28;4939221;28;20750;-62
2022/09/28 09:38:31;;;;;;;4.68;1.92;;;;;;;9.91;nan;92249.50;4935821;29;20044;-62
2022/09/28 09:41:26;;;;;;;3.90;1.50;;;;;;;9.80;nan;92260.13;4933899;29;20703;-63
2022/09/28 09:44:30;;;;;;;5.78;2.75;;;;;;;9.84;nan;92268.19;4921666;29;20770;-63
2022/09/28 09:47:06;;;;;;;5.07;1.53;;;;;;;9.78;nan;92252.34;4933538;29;20685;-62
2022/09/28 09:50:01;;;;;;;3.78;1.30;;;;;;;10.09;nan;92248.78;4932363;29;20043;-62
2022/09/28 09:52:54;;;;;;;4.10;1.77;;;;;;;10.12;nan;92255.34;4933550;29;20367;-62
2022/09/28 09:55:39;;;;;;;3.25;1.10;;;;;;;9.76;nan;92251.28;4934225;29;20044;-62
2022/09/28 09:58:23;;;;;;;3.38;1.15;;;;;;;9.52;nan;92251.03;4932924;29;20383;-62
2022/09/28 10:00:52;;;;;;;3.30;1.00;;;;;;;9.77;nan;92247.31;4933784;29;20048;-62
2022/09/28 10:03:25;;;;;;;3.78;1.00;;;;;;;9.82;nan;92254.97;4934006;29;20424;-62
2022/09/28 10:06:01;;;;;;;3.97;2.00;;;;;;;10.02;nan;92260.06;4932968;29;21167;-63
2022/09/28 10:08:33;;;;;;;3.38;1.38;;;;;;;9.75;nan;92255.22;4933698;29;20044;-62
2022/09/28 10:11:24;;;;;;;5.13;1.45;;;;;;;9.72;nan;92256.16;4934212;29;20040;-63
2022/09/28 10:13:51;;;;;;;3.13;1.00;;;;;;;9.35;nan;92258.69;4932943;29;20740;-62
2022/09/28 10:16:18;;;;;;;3.38;1.23;;;;;;;9.18;nan;92261.66;4933698;29;20048;-63
2022/09/28 10:18:46;;;;;;;4.82;1.50;;;;;;;9.56;nan;92252.41;4933315;29;20143;-62
2022/09/28 10:21:13;;;;;;;2.92;1.10;;;;;;;9.66;nan;92250.50;4916985;29;20084;-63
2022/09/28 10:23:41;;;;;;;3.80;1.50;;;;;;;9.71;nan;92247.16;4933420;29;20054;-63
2022/09/28 10:26:22;;;;;;;4.07;1.50;;;;;;;9.82;nan;92249.50;4916627;29;20048;-63
2022/09/28 10:28:59;;;;;;;5.05;2.10;;;;;;;9.60;nan;92249.56;4932840;29;20705;-62
2022/09/28 10:31:40;;;;;;;3.50;1.40;;;;;;;9.55;nan;92255.59;4933093;29;20027;-64
2022/09/28 10:34:12;;;;;;;3.08;1.27;;;;;;;9.43;nan;92249.00;4933726;29;20039;-62
2022/09/28 10:36:59;;;;;;;7.93;2.70;;;;;;;9.20;nan;92244.78;4932675;29;20056;-62
2022/09/28 10:39:40;;;;;;;3.93;1.63;;;;;;;9.12;nan;92240.78;4932888;29;20046;-62
2022/09/28 10:42:10;;;;;;;6.50;2.50;;;;;;;9.30;nan;92249.09;4933474;29;20051;-63
2022/09/28 10:44:54;;;;;;;12.25;5.57;;;;;;;9.63;nan;92261.56;4932951;29;20050;-62
2022/09/28 10:47:23;;;;;;;5.35;2.85;;;;;;;9.74;nan;92259.94;4933418;29;20175;-62
2022/09/28 10:49:52;;;;;;;5.93;2.47;;;;;;;10.22;nan;92278.06;4931009;29;20052;-62
2022/09/28 10:52:38;;;;;;;3.97;1.97;;;;;;;10.45;nan;92266.56;4933145;29;20054;-63
2022/09/28 10:55:20;;;;;;;2.80;1.10;;;;;;;10.17;nan;92262.97;4932225;29;21702;-64
2022/09/28 10:57:47;;;;;;;4.28;1.35;;;;;;;10.36;nan;92259.09;4932128;29;20051;-62
2022/09/28 11:00:32;;;;;;;5.40;1.27;;;;;;;9.92;nan;92262.00;4932913;29;20046;-61
2022/09/28 11:03:01;;;;;;;3.63;1.30;;;;;;;9.63;nan;92254.13;4932072;29;20655;-61
2022/09/28 11:05:28;;;;;;;4.17;1.40;;;;;;;9.87;nan;92262.56;4932349;29;20058;-62
2022/09/28 11:07:58;;;;;;;3.40;1.30;;;;;;;9.97;nan;92271.59;4932240;29;20048;-62
2022/09/28 11:10:29;;;;;;;6.82;1.95;;;;;;;8.89;nan;92264.63;4932020;29;20054;-62
2022/09/28 11:12:56;;;;;;;4.97;2.10;;;;;;;8.52;nan;92263.59;4932658;29;20090;-61
2022/09/28 11:15:27;;;;;;;4.47;2.17;;;;;;;8.44;nan;92265.06;4932818;29;20040;-62
2022/09/28 11:17:54;;;;;;;5.17;1.80;;;;;;;8.27;nan;92267.91;4931918;29;20221;-61
2022/09/28 11:20:24;;;;;;;7.22;2.38;;;;;;;8.77;nan;92274.44;4932825;29;20050;-61
2022/09/28 11:22:59;;;;;;;5.28;2.08;;;;;;;8.19;nan;92272.09;4931746;29;20234;-62
2022/09/28 11:25:28;;;;;;;6.63;3.03;;;;;;;7.94;nan;92270.16;4896858;29;20117;-61
2022/09/28 11:28:03;;;;;;;6.20;2.30;;;;;;;8.41;nan;92266.72;4931366;29;20050;-62
2022/09/28 11:30:33;;;;;;;4.40;1.90;;;;;;;8.32;nan;92269.31;4932092;29;20047;-62
2022/09/28 11:33:06;;;;;;;5.97;2.33;;;;;;;8.14;nan;92261.69;4932217;29;20048;-62
2022/09/28 11:35:45;;;;;;;5.25;2.15;;;;;;;7.80;nan;92269.38;4938753;28;20043;-63
2022/09/28 11:38:39;;;;;;;4.45;1.90;;;;;;;8.40;nan;92265.13;4934435;29;20054;-62
2022/09/28 11:41:31;;;;;;;4.43;1.60;;;;;;;8.95;nan;92273.03;4913655;29;20697;-62
2022/09/28 11:44:25;;;;;;;5.20;1.90;;;;;;;8.18;nan;92265.09;4914729;29;20048;-62
2022/09/28 11:47:18;;;;;;;6.40;2.10;;;;;;;7.94;nan;92264.69;4924326;29;20539;-62
2022/09/28 11:50:12;;;;;;;5.35;2.25;;;;;;;7.91;nan;92262.84;4927844;29;20378;-62
2022/09/28 11:53:15;;;;;;;4.43;1.80;;;;;;;8.66;nan;92254.91;4920803;29;20090;-62
2022/09/28 11:56:05;;;;;;;5.10;2.17;;;;;;;9.15;nan;92253.56;4882563;29;20058;-62
2022/09/28 11:58:41;;;;;;;5.67;2.30;;;;;;;8.97;nan;92252.25;4931606;29;20046;-62
2022/09/28 12:01:26;;;;;;;5.95;2.58;;;;;;;9.23;nan;92260.31;4932323;29;20039;-62
2022/09/28 12:04:00;;;;;;;5.63;2.40;;;;;;;9.26;nan;92264.91;4931476;29;20229;-64
2022/09/28 12:06:36;;;;;;;6.10;2.05;;;;;;;9.56;nan;92270.84;4931511;29;20047;-62
2022/09/28 12:09:16;;;;;;;4.70;2.03;;;;;;;9.70;nan;92266.75;4932320;29;20052;-62
2022/09/28 12:11:47;;;;;;;6.60;2.20;;;;;;;9.95;nan;92265.81;4931892;29;20051;-63
2022/09/28 12:14:22;;;;;;;5.60;2.70;;;;;;;9.85;nan;92256.78;4932247;29;20048;-63
2022/09/28 12:17:22;;;;;;;5.00;2.50;;;;;;;10.14;nan;92261.13;4931687;29;20039;-62
2022/09/28 12:20:19;;;;;;;4.60;2.70;;;;;;;10.00;nan;92259.75;4932543;29;20050;-62
2022/09/28 12:23:01;;;;;;;5.13;2.10;;;;;;;9.53;nan;92263.50;4935647;29;20496;-64
2022/09/28 12:25:38;;;;;;;4.93;1.80;;;;;;;9.09;nan;92271.78;4935255;29;20050;-62
2022/09/28 12:28:15;;;;;;;6.53;2.40;;;;;;;9.16;nan;92274.25;4935466;29;20515;-62
2022/09/28 12:30:44;;;;;;;4.85;1.67;;;;;;;9.23;nan;92273.97;4935232;29;20113;-62
2022/09/28 12:33:16;;;;;;;4.80;1.73;;;;;;;9.14;nan;92271.97;4935563;29;20127;-62
2022/09/28 12:36:29;;;;;;;4.43;1.70;;;;;;;9.15;nan;92275.47;4943142;28;20066;-62
2022/09/28 12:39:07;;;;;;;10.70;6.27;;;;;;;8.61;nan;92274.59;4881274;29;20729;-62